createdAt,value
2018-12-23T00:01:02.803Z,6.09
2018-12-23T00:03:33.521Z,6.20
2018-12-23T00:06:04.244Z,6.24
2018-12-23T00:08:34.948Z,6.17
2018-12-23T00:11:05.790Z,6.15
2018-12-23T00:13:36.533Z,6.25
2018-12-23T00:16:07.276Z,6.15
2018-12-23T00:18:38.061Z,6.77
2018-12-23T00:21:08.792Z,6.13
2018-12-23T00:23:39.501Z,6.11
2018-12-23T00:26:10.837Z,6.19
2018-12-23T00:28:41.838Z,6.16
2018-12-23T00:31:12.595Z,5.49
2018-12-23T00:33:43.439Z,6.12
2018-12-23T00:36:14.198Z,6.05
2018-12-23T00:38:44.915Z,5.99
2018-12-23T00:41:15.634Z,6.03
2018-12-23T00:43:46.366Z,5.92
2018-12-23T00:46:17.111Z,6.03
2018-12-23T00:48:47.824Z,6.02
2018-12-23T00:51:18.545Z,6.03
2018-12-23T00:53:49.389Z,5.94
2018-12-23T00:56:20.137Z,5.90
2018-12-23T00:58:50.932Z,5.91
2018-12-23T01:01:21.714Z,5.91
2018-12-23T01:03:52.416Z,6.00
2018-12-23T01:06:23.314Z,5.92
2018-12-23T01:08:54.057Z,5.92
2018-12-23T01:11:24.752Z,5.91
2018-12-23T01:14:05.666Z,5.97
2018-12-23T01:16:36.453Z,5.95
2018-12-23T01:19:07.152Z,5.90
2018-12-23T01:21:37.856Z,5.94
2018-12-23T01:24:08.541Z,5.85
2018-12-23T01:26:39.242Z,5.87
2018-12-23T01:29:10.440Z,5.93
2018-12-23T01:31:41.328Z,6.00
2018-12-23T01:34:12.120Z,5.96
2018-12-23T01:36:42.828Z,5.93
2018-12-23T01:39:13.513Z,5.92
2018-12-23T01:41:44.297Z,5.92
2018-12-23T01:44:15.069Z,5.85
2018-12-23T01:46:45.870Z,5.85
2018-12-23T01:49:16.834Z,6.14
2018-12-23T01:51:47.626Z,6.06
2018-12-23T01:54:18.392Z,6.05
2018-12-23T01:56:49.117Z,5.88
2018-12-23T01:59:19.931Z,6.06
2018-12-23T02:01:50.631Z,6.08
2018-12-23T02:04:21.326Z,6.05
2018-12-23T02:06:52.287Z,6.01
2018-12-23T02:09:23.085Z,6.09
2018-12-23T02:11:53.794Z,5.55
2018-12-23T02:14:24.473Z,6.07
2018-12-23T02:16:55.253Z,6.17
2018-12-23T02:19:26.020Z,6.10
2018-12-23T02:21:56.814Z,6.08
2018-12-23T02:24:27.495Z,5.99
2018-12-23T02:26:58.204Z,6.10
2018-12-23T02:29:28.980Z,6.03
2018-12-23T02:31:59.668Z,6.18
2018-12-23T02:34:30.353Z,5.44
2018-12-23T02:37:01.157Z,6.21
2018-12-23T02:39:31.885Z,6.10
2018-12-23T02:42:02.576Z,6.11
2018-12-23T02:44:33.333Z,6.03
2018-12-23T02:47:04.037Z,6.16
2018-12-23T02:49:34.717Z,6.16
2018-12-23T02:52:05.450Z,6.03
2018-12-23T02:54:36.140Z,6.05
2018-12-23T02:57:06.937Z,5.99
2018-12-23T02:59:37.648Z,6.02
2018-12-23T03:02:08.357Z,6.09
2018-12-23T03:04:39.228Z,6.01
2018-12-23T03:07:11.159Z,6.08
2018-12-23T03:09:42.200Z,6.09
2018-12-23T03:12:12.898Z,6.21
2018-12-23T03:14:43.657Z,6.19
2018-12-23T03:17:14.380Z,6.06
2018-12-23T03:19:45.192Z,6.14
2018-12-23T03:22:17.001Z,6.06
2018-12-23T03:24:47.692Z,6.15
2018-12-23T03:27:18.404Z,6.16
2018-12-23T03:29:49.122Z,6.07
2018-12-23T03:32:19.846Z,5.89
2018-12-23T03:34:50.653Z,5.94
2018-12-23T03:37:21.409Z,5.88
2018-12-23T03:39:52.132Z,5.75
2018-12-23T03:42:22.848Z,5.87
2018-12-23T03:44:53.584Z,5.97
2018-12-23T03:47:24.374Z,5.96
2018-12-23T03:49:55.081Z,6.02
2018-12-23T03:52:25.868Z,5.88
2018-12-23T03:54:56.585Z,5.87
2018-12-23T03:57:27.358Z,5.90
2018-12-23T03:59:58.070Z,5.98
2018-12-23T04:02:28.792Z,5.88
2018-12-23T04:04:59.508Z,5.94
2018-12-23T04:07:30.229Z,5.95
2018-12-23T04:10:00.950Z,6.03
2018-12-23T04:12:31.665Z,5.99
2018-12-23T04:15:02.397Z,5.89
2018-12-23T04:17:33.696Z,5.92
2018-12-23T04:20:04.620Z,5.77
2018-12-23T04:22:35.343Z,5.84
2018-12-23T04:25:06.345Z,5.87
2018-12-23T04:27:37.043Z,5.67
2018-12-23T04:30:07.952Z,5.80
2018-12-23T04:32:38.672Z,5.87
2018-12-23T04:35:09.396Z,5.91
2018-12-23T04:37:40.213Z,5.76
2018-12-23T04:40:11.664Z,5.81
2018-12-23T04:42:42.439Z,5.79
2018-12-23T04:45:13.162Z,5.82
2018-12-23T04:47:43.863Z,5.81
2018-12-23T04:50:14.612Z,5.87
2018-12-23T04:52:45.349Z,5.78
2018-12-23T04:55:16.148Z,5.76
2018-12-23T04:57:46.857Z,5.85
2018-12-23T05:00:17.577Z,5.79
2018-12-23T05:02:48.331Z,5.70
2018-12-23T05:05:19.045Z,5.71
2018-12-23T05:07:49.760Z,7.14
2018-12-23T05:10:20.522Z,5.76
2018-12-23T05:12:51.229Z,5.82
2018-12-23T05:15:21.969Z,5.74
2018-12-23T05:17:52.685Z,5.75
2018-12-23T05:20:23.436Z,5.71
2018-12-23T05:22:54.156Z,5.84
2018-12-23T05:25:24.893Z,5.88
2018-12-23T05:27:55.625Z,5.85
2018-12-23T05:30:26.374Z,5.84
2018-12-23T05:32:57.080Z,5.88
2018-12-23T05:35:28.116Z,5.89
2018-12-23T05:37:58.837Z,5.86
2018-12-23T05:40:29.567Z,5.68
2018-12-23T05:43:00.288Z,5.68
2018-12-23T05:45:31.109Z,5.78
2018-12-23T05:48:08.430Z,5.78
2018-12-23T05:50:39.148Z,5.69
2018-12-23T05:53:10.729Z,5.80
2018-12-23T05:55:40.046Z,5.85
2018-12-23T05:58:10.767Z,5.78
2018-12-23T06:00:41.572Z,5.74
2018-12-23T06:03:12.287Z,5.86
2018-12-23T06:05:43.012Z,5.80
2018-12-23T06:08:13.729Z,5.79
2018-12-23T06:10:44.440Z,5.87
2018-12-23T06:13:15.163Z,5.67
2018-12-23T06:15:45.889Z,5.86
2018-12-23T06:18:16.604Z,5.71
2018-12-23T06:20:47.331Z,5.15
2018-12-23T06:23:18.041Z,5.75
2018-12-23T06:25:48.770Z,5.83
2018-12-23T06:28:19.488Z,5.75
2018-12-23T06:30:50.195Z,5.76
2018-12-23T06:33:20.937Z,5.85
2018-12-23T06:35:51.664Z,5.90
2018-12-23T06:38:22.401Z,5.84
2018-12-23T06:40:53.113Z,5.84
2018-12-23T06:43:23.855Z,5.76
2018-12-23T06:45:54.581Z,5.73
2018-12-23T06:48:25.305Z,5.85
2018-12-23T06:50:56.019Z,5.74
2018-12-23T06:53:26.845Z,5.70
2018-12-23T06:55:57.575Z,5.73
2018-12-23T06:58:28.299Z,5.87
2018-12-23T07:00:58.999Z,5.77
2018-12-23T07:03:29.720Z,5.72
2018-12-23T07:06:00.415Z,5.81
2018-12-23T07:08:31.129Z,5.78
2018-12-23T07:11:01.966Z,5.84
2018-12-23T07:13:32.673Z,5.77
2018-12-23T07:16:03.386Z,5.69
2018-12-23T07:18:34.118Z,5.85
2018-12-23T07:21:04.912Z,5.80
2018-12-23T07:23:35.656Z,5.76
2018-12-23T07:26:06.377Z,5.84
2018-12-23T07:28:37.083Z,5.68
2018-12-23T07:31:07.805Z,5.75
2018-12-23T07:33:38.519Z,5.80
2018-12-23T07:36:09.246Z,5.79
2018-12-23T07:38:40.003Z,5.73
2018-12-23T07:41:10.711Z,5.63
2018-12-23T07:43:41.450Z,5.72
2018-12-23T07:46:12.290Z,5.77
2018-12-23T07:48:43.146Z,5.85
2018-12-23T07:51:13.859Z,5.79
2018-12-23T07:53:44.596Z,5.83
2018-12-23T07:56:15.324Z,5.86
2018-12-23T07:58:46.048Z,5.90
2018-12-23T08:01:16.759Z,5.75
2018-12-23T08:03:47.489Z,5.69
2018-12-23T08:06:18.187Z,5.86
2018-12-23T08:08:48.906Z,5.88
2018-12-23T08:11:19.652Z,5.78
2018-12-23T08:13:50.453Z,5.82
2018-12-23T08:16:21.203Z,5.82
2018-12-23T08:18:51.927Z,5.86
2018-12-23T08:21:22.729Z,5.96
2018-12-23T08:23:53.448Z,5.80
2018-12-23T08:26:24.157Z,5.90
2018-12-23T08:28:54.892Z,5.90
2018-12-23T08:31:25.609Z,5.87
2018-12-23T08:33:56.335Z,5.96
2018-12-23T08:36:27.057Z,5.82
2018-12-23T08:38:57.787Z,5.92
2018-12-23T08:41:28.495Z,6.01
2018-12-23T08:43:59.229Z,6.08
2018-12-23T08:46:29.949Z,5.99
2018-12-23T08:49:00.673Z,6.01
2018-12-23T08:51:31.394Z,5.41
2018-12-23T08:54:02.213Z,6.08
2018-12-23T08:56:32.925Z,6.09
2018-12-23T08:59:03.666Z,6.09
2018-12-23T09:01:34.408Z,6.15
2018-12-23T09:04:05.325Z,6.16
2018-12-23T09:06:36.043Z,6.12
2018-12-23T09:09:07.564Z,5.98
2018-12-23T09:11:42.788Z,6.15
2018-12-23T09:14:10.959Z,6.15
2018-12-23T09:16:41.669Z,6.11
2018-12-23T09:19:12.380Z,6.22
2018-12-23T09:21:43.098Z,6.09
2018-12-23T09:24:13.819Z,6.02
2018-12-23T09:26:44.527Z,6.12
2018-12-23T09:29:15.255Z,6.25
2018-12-23T09:31:45.964Z,6.22
2018-12-23T09:34:16.673Z,6.25
2018-12-23T09:36:47.840Z,6.24
2018-12-23T09:39:18.729Z,6.28
2018-12-23T09:41:49.423Z,6.34
2018-12-23T09:44:20.156Z,6.28
2018-12-23T09:46:50.872Z,6.19
2018-12-23T09:49:21.616Z,6.29
2018-12-23T09:51:52.419Z,6.34
2018-12-23T09:54:23.208Z,6.36
2018-12-23T09:56:53.953Z,6.45
2018-12-23T09:59:24.671Z,6.37
2018-12-23T10:01:55.393Z,6.39
2018-12-23T10:04:26.128Z,6.32
2018-12-23T10:06:56.876Z,6.25
2018-12-23T10:09:27.611Z,6.27
2018-12-23T10:11:58.319Z,6.28
2018-12-23T10:14:29.084Z,6.40
2018-12-23T10:16:59.786Z,6.44
2018-12-23T10:19:30.512Z,6.39
2018-12-23T10:22:01.275Z,6.36
2018-12-23T10:24:32.180Z,6.34
2018-12-23T10:27:02.906Z,6.40
2018-12-23T10:29:33.635Z,6.33
2018-12-23T10:32:04.442Z,6.41
2018-12-23T10:34:35.156Z,6.37
2018-12-23T10:37:05.875Z,6.43
2018-12-23T10:39:36.590Z,6.36
2018-12-23T10:42:07.312Z,6.34
2018-12-23T10:44:38.123Z,6.35
2018-12-23T10:47:08.933Z,7.01
2018-12-23T10:49:39.648Z,6.35
2018-12-23T10:52:10.609Z,6.36
2018-12-23T10:54:41.311Z,6.29
2018-12-23T10:57:12.962Z,6.34
2018-12-23T10:59:43.671Z,6.48
2018-12-23T11:02:14.384Z,6.45
2018-12-23T11:04:45.103Z,6.34
2018-12-23T11:07:15.828Z,6.55
2018-12-23T11:09:46.624Z,6.57
2018-12-23T11:12:17.330Z,6.55
2018-12-23T11:14:48.081Z,6.58
2018-12-23T11:17:18.796Z,6.59
2018-12-23T11:19:49.548Z,6.62
2018-12-23T11:22:20.320Z,6.62
2018-12-23T11:24:51.119Z,6.66
2018-12-23T11:27:21.859Z,6.59
2018-12-23T11:29:52.577Z,6.47
2018-12-23T11:32:23.301Z,6.60
2018-12-23T11:34:54.027Z,6.64
2018-12-23T11:37:24.857Z,6.65
2018-12-23T11:39:55.599Z,6.74
2018-12-23T11:42:26.313Z,6.71
2018-12-23T11:44:57.032Z,6.67
2018-12-23T11:47:27.760Z,6.70
2018-12-23T11:49:58.486Z,6.69
2018-12-23T11:52:29.206Z,6.68
2018-12-23T11:55:00.852Z,6.69
2018-12-23T11:57:31.568Z,6.70
2018-12-23T12:00:02.279Z,6.69
2018-12-23T12:02:33.015Z,6.67
2018-12-23T12:05:03.735Z,6.67
2018-12-23T12:07:34.467Z,6.81
2018-12-23T12:10:06.016Z,6.80
2018-12-23T12:12:36.996Z,6.80
2018-12-23T12:15:08.850Z,6.74
2018-12-23T12:17:39.559Z,6.75
2018-12-23T12:20:10.366Z,6.78
2018-12-23T12:22:41.350Z,6.86
2018-12-23T12:25:12.213Z,6.76
2018-12-23T12:27:42.950Z,6.78
2018-12-23T12:30:13.695Z,6.76
2018-12-23T12:32:44.415Z,6.78
2018-12-23T12:35:15.150Z,6.76
2018-12-23T12:37:45.873Z,6.82
2018-12-23T12:40:16.604Z,6.77
2018-12-23T12:42:47.329Z,6.85
2018-12-23T12:45:18.054Z,6.70
2018-12-23T12:47:48.779Z,6.67
2018-12-23T12:50:19.525Z,6.68
2018-12-23T12:52:50.277Z,6.58
2018-12-23T12:55:21.034Z,6.54
2018-12-23T12:57:51.763Z,6.60
2018-12-23T13:00:22.496Z,6.56
2018-12-23T13:02:53.245Z,6.46
2018-12-23T13:05:23.975Z,6.61
2018-12-23T13:07:54.690Z,6.64
2018-12-23T13:10:25.425Z,6.60
2018-12-23T13:12:56.145Z,6.50
2018-12-23T13:15:26.886Z,6.51
2018-12-23T13:17:57.607Z,6.48
2018-12-23T13:20:28.398Z,6.49
2018-12-23T13:22:59.234Z,6.56
2018-12-23T13:25:29.975Z,6.23
2018-12-23T13:28:00.710Z,6.47
2018-12-23T13:30:31.588Z,6.42
2018-12-23T13:33:02.307Z,6.47
2018-12-23T13:35:33.032Z,6.51
2018-12-23T13:38:03.768Z,6.50
2018-12-23T13:43:22.619Z,6.45
2018-12-23T13:46:12.378Z,6.98
2018-12-23T13:49:03.715Z,6.29
2018-12-23T13:52:55.825Z,6.50
2018-12-23T13:55:47.092Z,6.27
2018-12-23T13:58:56.479Z,6.30
2018-12-23T14:01:48.948Z,6.37
2018-12-23T14:05:13.674Z,6.92
2018-12-23T14:08:04.753Z,6.31
2018-12-23T14:10:52.118Z,6.15
2018-12-23T14:13:22.841Z,6.17
2018-12-23T14:15:53.568Z,6.20
2018-12-23T14:18:24.283Z,6.15
2018-12-23T14:20:54.993Z,6.18
2018-12-23T14:23:25.707Z,6.07
2018-12-23T14:25:56.428Z,6.15
2018-12-23T14:28:27.147Z,6.11
2018-12-23T14:30:57.859Z,6.13
2018-12-23T14:33:28.575Z,6.33
2018-12-23T14:35:59.328Z,5.86
2018-12-23T14:38:30.039Z,6.03
2018-12-23T14:41:00.756Z,6.12
2018-12-23T14:43:31.548Z,6.21
2018-12-23T14:46:02.259Z,6.03
2018-12-23T14:48:32.988Z,6.06
2018-12-23T14:51:03.693Z,6.02
2018-12-23T14:53:34.428Z,6.09
2018-12-23T14:56:05.330Z,6.11
2018-12-23T14:58:37.783Z,6.10
2018-12-23T15:01:09.321Z,6.09
2018-12-23T15:03:40.040Z,6.15
2018-12-23T15:06:10.773Z,6.18
2018-12-23T15:08:41.483Z,6.11
2018-12-23T15:11:12.188Z,5.95
2018-12-23T15:13:42.901Z,6.03
2018-12-23T15:16:14.644Z,5.90
2018-12-23T15:18:46.820Z,5.94
2018-12-23T15:21:17.557Z,5.87
2018-12-23T15:23:48.280Z,5.96
2018-12-23T15:26:19.037Z,5.99
2018-12-23T15:28:49.778Z,6.03
2018-12-23T15:31:20.503Z,5.91
2018-12-23T15:33:51.261Z,6.09
2018-12-23T15:36:23.355Z,5.81
2018-12-23T15:38:54.062Z,5.94
2018-12-23T15:41:25.695Z,5.87
2018-12-23T15:43:56.416Z,5.97
2018-12-23T15:46:27.135Z,5.94
2018-12-23T15:48:58.040Z,5.94
2018-12-23T15:51:28.743Z,5.98
2018-12-23T15:53:59.455Z,5.96
2018-12-23T15:56:30.163Z,5.84
2018-12-23T15:59:00.929Z,5.92
2018-12-23T16:01:31.737Z,6.01
2018-12-23T16:04:02.518Z,5.97
2018-12-23T16:06:33.224Z,5.86
2018-12-23T16:09:05.127Z,5.90
2018-12-23T16:11:35.836Z,5.81
2018-12-23T16:14:06.555Z,5.89
2018-12-23T16:16:37.265Z,5.98
2018-12-23T16:19:09.511Z,5.88
2018-12-23T16:21:40.237Z,5.80
2018-12-23T16:24:11.016Z,5.75
2018-12-23T16:26:41.851Z,5.84
2018-12-23T16:29:12.563Z,5.87
2018-12-23T16:31:43.276Z,5.86
2018-12-23T16:34:14.076Z,5.87
2018-12-23T16:36:44.794Z,5.81
2018-12-23T16:39:15.507Z,5.81
2018-12-23T16:41:46.309Z,5.75
2018-12-23T16:44:17.102Z,5.68
2018-12-23T16:46:47.809Z,5.72
2018-12-23T16:49:18.533Z,5.83
2018-12-23T16:51:49.249Z,5.76
2018-12-23T16:54:19.983Z,5.86
2018-12-23T16:56:50.696Z,5.85
2018-12-23T16:59:21.533Z,5.76
2018-12-23T17:01:52.271Z,5.76
2018-12-23T17:04:25.919Z,5.69
2018-12-23T17:06:56.619Z,5.80
2018-12-23T17:09:27.353Z,5.82
2018-12-23T17:11:58.061Z,5.81
2018-12-23T17:14:28.859Z,5.75
2018-12-23T17:16:59.563Z,5.79
2018-12-23T17:19:30.296Z,5.76
2018-12-23T17:22:01.093Z,5.75
2018-12-23T17:24:31.825Z,5.75
2018-12-23T17:27:02.519Z,5.74
2018-12-23T17:29:33.236Z,5.76
2018-12-23T17:32:03.949Z,5.81
2018-12-23T17:34:34.688Z,5.91
2018-12-23T17:37:05.500Z,5.82
2018-12-23T17:39:36.229Z,5.67
2018-12-23T17:42:06.938Z,5.78
2018-12-23T17:44:37.661Z,5.72
2018-12-23T17:47:09.667Z,5.83
2018-12-23T17:49:40.393Z,5.96
2018-12-23T17:52:11.146Z,6.10
2018-12-23T17:54:41.866Z,5.88
2018-12-23T17:57:12.563Z,5.93
2018-12-23T17:59:43.296Z,5.95
2018-12-23T18:02:14.109Z,5.99
2018-12-23T18:04:45.000Z,5.93
2018-12-23T18:07:15.723Z,5.94
2018-12-23T18:09:46.440Z,6.01
2018-12-23T18:12:17.226Z,5.94
2018-12-23T18:14:47.917Z,5.90
2018-12-23T18:17:18.717Z,6.00
2018-12-23T18:19:49.451Z,6.07
2018-12-23T18:22:20.214Z,6.18
2018-12-23T18:24:51.207Z,6.25
2018-12-23T18:27:21.946Z,6.25
2018-12-23T18:29:52.667Z,6.26
2018-12-23T18:32:23.392Z,6.24
2018-12-23T18:34:54.131Z,6.38
2018-12-23T18:37:24.842Z,6.43
2018-12-23T18:39:55.552Z,6.51
2018-12-23T18:42:26.281Z,6.53
2018-12-23T18:44:57.016Z,6.64
2018-12-23T18:47:27.744Z,6.71
2018-12-23T18:49:58.478Z,6.78
2018-12-23T18:52:29.283Z,6.82
2018-12-23T18:55:00.091Z,6.99
2018-12-23T18:57:37.479Z,6.97
2018-12-23T19:00:10.197Z,7.15
2018-12-23T19:02:48.900Z,7.19
2018-12-23T19:05:19.712Z,7.21
2018-12-23T19:07:55.264Z,7.34
2018-12-23T19:16:58.318Z,7.12
2018-12-23T19:20:14.545Z,7.21
2018-12-23T19:23:36.478Z,7.36
2018-12-23T19:27:03.341Z,7.45
2018-12-23T19:30:04.150Z,7.44
2018-12-23T19:33:17.882Z,7.59
2018-12-23T19:37:01.369Z,7.66
2018-12-23T19:40:40.497Z,7.67
2018-12-23T19:43:57.441Z,7.71
2018-12-23T19:47:35.555Z,7.77
2018-12-23T19:51:13.243Z,7.82
2018-12-23T19:55:01.820Z,7.93
2018-12-23T19:58:26.266Z,8.11
2018-12-23T20:01:22.659Z,8.22
2018-12-23T20:04:34.721Z,8.25
2018-12-23T20:08:16.413Z,8.34
2018-12-23T20:11:35.277Z,8.40
2018-12-23T20:14:56.491Z,8.41
2018-12-23T20:18:46.352Z,8.40
2018-12-23T20:21:48.246Z,8.46
2018-12-23T20:25:07.098Z,8.51
2018-12-23T20:28:21.442Z,8.53
2018-12-23T20:31:49.728Z,8.62
2018-12-23T20:35:43.450Z,8.61
2018-12-23T20:39:02.174Z,8.64
2018-12-23T20:42:30.917Z,8.62
2018-12-23T20:46:26.631Z,8.63
2018-12-23T20:49:48.207Z,8.62
2018-12-23T20:53:10.289Z,8.63
2018-12-23T20:57:07.079Z,8.59
2018-12-23T21:00:37.637Z,8.64
2018-12-23T21:04:01.005Z,8.70
2018-12-23T21:07:41.412Z,8.76
2018-12-23T21:11:21.639Z,8.77
2018-12-23T21:14:58.514Z,8.74
2018-12-23T21:18:13.938Z,8.70
2018-12-23T21:21:44.533Z,8.77
2018-12-23T21:25:23.425Z,8.78
2018-12-23T21:28:59.334Z,8.78
2018-12-23T21:32:05.987Z,8.88
2018-12-23T21:35:58.141Z,8.86
2018-12-23T21:39:53.655Z,8.85
2018-12-23T21:43:33.092Z,8.85
2018-12-23T21:46:58.939Z,8.93
2018-12-23T21:50:22.504Z,8.95
2018-12-23T21:54:14.027Z,9.01
2018-12-23T21:57:41.167Z,9.00
2018-12-23T22:01:03.353Z,9.00
2018-12-23T22:04:54.919Z,8.99
2018-12-23T22:08:45.875Z,8.98
2018-12-23T22:11:34.417Z,9.00
2018-12-23T22:14:06.268Z,8.98
2018-12-23T22:16:38.067Z,8.97
2018-12-23T22:19:10.185Z,8.99
2018-12-23T22:21:42.061Z,9.04
2018-12-23T22:24:14.618Z,9.01
2018-12-23T22:26:46.759Z,9.09
2018-12-23T22:29:18.635Z,9.06
2018-12-23T22:31:50.433Z,9.14
2018-12-23T22:34:22.322Z,9.17
2018-12-23T22:36:54.125Z,9.11
2018-12-23T22:39:25.977Z,9.13
2018-12-23T22:41:57.776Z,9.06
2018-12-23T22:44:29.553Z,9.07
2018-12-23T22:47:01.347Z,9.06
2018-12-23T22:49:33.139Z,9.01
2018-12-23T22:52:04.930Z,9.03
2018-12-23T22:54:36.995Z,9.10
2018-12-23T22:57:09.357Z,9.05
2018-12-23T22:59:41.239Z,9.00
2018-12-23T23:02:13.099Z,9.02
2018-12-23T23:04:44.890Z,9.05
2018-12-23T23:07:16.795Z,9.08
2018-12-23T23:09:48.913Z,9.09
2018-12-23T23:12:23.849Z,9.05
2018-12-23T23:14:55.706Z,9.00
2018-12-23T23:17:27.674Z,8.98
2018-12-23T23:19:59.889Z,9.04
2018-12-23T23:22:31.767Z,9.00
2018-12-23T23:25:03.621Z,9.02
2018-12-23T23:27:35.671Z,9.03
2018-12-23T23:30:07.795Z,9.06
2018-12-23T23:32:39.738Z,8.98
2018-12-23T23:35:11.597Z,9.07
2018-12-23T23:37:43.468Z,9.09
2018-12-23T23:40:15.324Z,9.06
2018-12-23T23:42:47.265Z,9.00
2018-12-23T23:45:19.039Z,9.01
2018-12-23T23:47:50.996Z,9.00
2018-12-23T23:50:23.598Z,8.93
2018-12-23T23:52:55.445Z,8.93
2018-12-23T23:55:27.376Z,9.01
2018-12-23T23:57:59.169Z,8.95
